sensor_id;sensor_type;location;lat;lon;timestamp;P1;durP1;ratioP1;P2;durP2;ratioP2
21731;SDS011;11028;51.156;17.130;2023-07-24T00:01:40;6.88;;;3.30;;
21731;SDS011;11028;51.156;17.130;2023-07-24T00:09:00;14.57;;;3.60;;
21731;SDS011;11028;51.156;17.130;2023-07-24T00:16:18;5.97;;;3.00;;
21731;SDS011;11028;51.156;17.130;2023-07-24T00:23:36;4.30;;;2.90;;
21731;SDS011;11028;51.156;17.130;2023-07-24T00:30:56;10.57;;;3.65;;
21731;SDS011;11028;51.156;17.130;2023-07-24T00:38:14;6.32;;;3.33;;
21731;SDS011;11028;51.156;17.130;2023-07-24T00:45:33;6.75;;;3.28;;
21731;SDS011;11028;51.156;17.130;2023-07-24T00:52:52;5.43;;;2.70;;
21731;SDS011;11028;51.156;17.130;2023-07-24T01:00:11;7.35;;;3.67;;
21731;SDS011;11028;51.156;17.130;2023-07-24T01:07:30;7.55;;;3.20;;
21731;SDS011;11028;51.156;17.130;2023-07-24T01:14:51;8.73;;;3.40;;
21731;SDS011;11028;51.156;17.130;2023-07-24T01:29:34;8.50;;;2.97;;
21731;SDS011;11028;51.156;17.130;2023-07-24T01:36:52;12.38;;;3.17;;
21731;SDS011;11028;51.156;17.130;2023-07-24T01:44:11;8.20;;;2.75;;
21731;SDS011;11028;51.156;17.130;2023-07-24T01:51:30;5.97;;;3.17;;
21731;SDS011;11028;51.156;17.130;2023-07-24T01:58:49;7.38;;;3.75;;
21731;SDS011;11028;51.156;17.130;2023-07-24T02:06:07;10.13;;;3.70;;
21731;SDS011;11028;51.156;17.130;2023-07-24T02:13:27;5.93;;;3.38;;
21731;SDS011;11028;51.156;17.130;2023-07-24T02:20:48;10.50;;;3.20;;
21731;SDS011;11028;51.156;17.130;2023-07-24T02:28:07;12.00;;;4.07;;
21731;SDS011;11028;51.156;17.130;2023-07-24T02:35:26;3.85;;;2.72;;
21731;SDS011;11028;51.156;17.130;2023-07-24T02:42:44;6.78;;;3.38;;
21731;SDS011;11028;51.156;17.130;2023-07-24T02:50:03;6.18;;;3.13;;
21731;SDS011;11028;51.156;17.130;2023-07-24T02:57:24;10.55;;;3.13;;
21731;SDS011;11028;51.156;17.130;2023-07-24T03:04:42;10.00;;;3.40;;
21731;SDS011;11028;51.156;17.130;2023-07-24T03:12:01;7.68;;;3.30;;
21731;SDS011;11028;51.156;17.130;2023-07-24T03:19:20;7.20;;;2.80;;
21731;SDS011;11028;51.156;17.130;2023-07-24T03:26:39;8.75;;;3.40;;
21731;SDS011;11028;51.156;17.130;2023-07-24T03:33:57;7.10;;;3.17;;
21731;SDS011;11028;51.156;17.130;2023-07-24T03:41:17;12.52;;;3.83;;
21731;SDS011;11028;51.156;17.130;2023-07-24T03:48:35;7.03;;;3.53;;
21731;SDS011;11028;51.156;17.130;2023-07-24T03:55:54;8.40;;;3.83;;
21731;SDS011;11028;51.156;17.130;2023-07-24T04:03:13;11.52;;;3.20;;
21731;SDS011;11028;51.156;17.130;2023-07-24T04:10:32;10.50;;;3.20;;
21731;SDS011;11028;51.156;17.130;2023-07-24T04:17:50;8.25;;;3.60;;
21731;SDS011;11028;51.156;17.130;2023-07-24T04:25:09;7.35;;;3.47;;
21731;SDS011;11028;51.156;17.130;2023-07-24T04:32:28;6.80;;;3.90;;
21731;SDS011;11028;51.156;17.130;2023-07-24T04:39:46;4.95;;;2.95;;
21731;SDS011;11028;51.156;17.130;2023-07-24T04:47:05;5.93;;;3.35;;
21731;SDS011;11028;51.156;17.130;2023-07-24T04:54:24;8.43;;;3.60;;
21731;SDS011;11028;51.156;17.130;2023-07-24T05:01:42;7.22;;;3.45;;
21731;SDS011;11028;51.156;17.130;2023-07-24T05:09:02;5.70;;;3.30;;
21731;SDS011;11028;51.156;17.130;2023-07-24T05:16:20;9.70;;;3.38;;
21731;SDS011;11028;51.156;17.130;2023-07-24T05:23:38;8.68;;;3.70;;
21731;SDS011;11028;51.156;17.130;2023-07-24T05:31:00;4.95;;;3.05;;
21731;SDS011;11028;51.156;17.130;2023-07-24T05:38:19;5.10;;;3.33;;
21731;SDS011;11028;51.156;17.130;2023-07-24T05:45:38;8.95;;;3.58;;
21731;SDS011;11028;51.156;17.130;2023-07-24T05:52:58;5.85;;;3.33;;
21731;SDS011;11028;51.156;17.130;2023-07-24T06:00:16;8.77;;;3.60;;
21731;SDS011;11028;51.156;17.130;2023-07-24T06:07:35;4.85;;;3.22;;
21731;SDS011;11028;51.156;17.130;2023-07-24T06:14:55;6.97;;;3.70;;
21731;SDS011;11028;51.156;17.130;2023-07-24T06:22:13;7.45;;;3.75;;
21731;SDS011;11028;51.156;17.130;2023-07-24T06:29:31;7.88;;;3.33;;
21731;SDS011;11028;51.156;17.130;2023-07-24T06:36:51;5.75;;;3.60;;
21731;SDS011;11028;51.156;17.130;2023-07-24T06:44:09;5.28;;;3.35;;
21731;SDS011;11028;51.156;17.130;2023-07-24T06:51:27;7.20;;;3.45;;
21731;SDS011;11028;51.156;17.130;2023-07-24T06:58:47;5.32;;;3.60;;
21731;SDS011;11028;51.156;17.130;2023-07-24T07:06:05;5.30;;;3.53;;
21731;SDS011;11028;51.156;17.130;2023-07-24T07:13:24;12.68;;;4.40;;
21731;SDS011;11028;51.156;17.130;2023-07-24T07:20:46;6.18;;;4.05;;
21731;SDS011;11028;51.156;17.130;2023-07-24T07:28:04;6.28;;;3.42;;
21731;SDS011;11028;51.156;17.130;2023-07-24T07:35:22;5.28;;;3.83;;
21731;SDS011;11028;51.156;17.130;2023-07-24T07:42:42;6.85;;;3.92;;
21731;SDS011;11028;51.156;17.130;2023-07-24T07:50:01;5.68;;;3.70;;
21731;SDS011;11028;51.156;17.130;2023-07-24T07:57:20;5.00;;;3.22;;
21731;SDS011;11028;51.156;17.130;2023-07-24T08:04:39;6.22;;;3.60;;
21731;SDS011;11028;51.156;17.130;2023-07-24T08:11:57;8.50;;;4.18;;
21731;SDS011;11028;51.156;17.130;2023-07-24T08:19:15;6.97;;;3.72;;
21731;SDS011;11028;51.156;17.130;2023-07-24T08:26:35;6.43;;;4.05;;
21731;SDS011;11028;51.156;17.130;2023-07-24T08:33:55;10.18;;;4.40;;
21731;SDS011;11028;51.156;17.130;2023-07-24T08:41:13;9.25;;;4.32;;
21731;SDS011;11028;51.156;17.130;2023-07-24T08:48:35;8.15;;;4.75;;
21731;SDS011;11028;51.156;17.130;2023-07-24T08:55:54;7.75;;;4.82;;
21731;SDS011;11028;51.156;17.130;2023-07-24T09:03:14;7.55;;;4.20;;
21731;SDS011;11028;51.156;17.130;2023-07-24T09:10:34;11.80;;;3.78;;
21731;SDS011;11028;51.156;17.130;2023-07-24T09:17:53;10.95;;;3.90;;
21731;SDS011;11028;51.156;17.130;2023-07-24T09:25:11;7.30;;;3.88;;
21731;SDS011;11028;51.156;17.130;2023-07-24T09:32:30;8.50;;;3.53;;
21731;SDS011;11028;51.156;17.130;2023-07-24T09:39:49;10.23;;;4.70;;
21731;SDS011;11028;51.156;17.130;2023-07-24T09:47:09;7.13;;;3.97;;
21731;SDS011;11028;51.156;17.130;2023-07-24T09:54:52;5.72;;;3.95;;
21731;SDS011;11028;51.156;17.130;2023-07-24T10:02:13;6.43;;;4.28;;
21731;SDS011;11028;51.156;17.130;2023-07-24T10:09:32;7.32;;;4.40;;
21731;SDS011;11028;51.156;17.130;2023-07-24T10:16:52;11.40;;;4.32;;
21731;SDS011;11028;51.156;17.130;2023-07-24T10:24:12;6.13;;;3.80;;
21731;SDS011;11028;51.156;17.130;2023-07-24T10:31:51;6.50;;;4.53;;
21731;SDS011;11028;51.156;17.130;2023-07-24T10:39:15;6.25;;;4.28;;
21731;SDS011;11028;51.156;17.130;2023-07-24T10:46:35;7.35;;;4.50;;
21731;SDS011;11028;51.156;17.130;2023-07-24T10:53:56;7.45;;;4.55;;
21731;SDS011;11028;51.156;17.130;2023-07-24T11:01:14;9.73;;;5.07;;
21731;SDS011;11028;51.156;17.130;2023-07-24T11:08:32;8.70;;;5.20;;
21731;SDS011;11028;51.156;17.130;2023-07-24T11:15:54;10.32;;;5.03;;
21731;SDS011;11028;51.156;17.130;2023-07-24T11:23:13;7.13;;;4.85;;
21731;SDS011;11028;51.156;17.130;2023-07-24T11:30:32;8.50;;;4.85;;
21731;SDS011;11028;51.156;17.130;2023-07-24T11:37:52;5.97;;;4.75;;
21731;SDS011;11028;51.156;17.130;2023-07-24T11:45:10;6.97;;;4.53;;
21731;SDS011;11028;51.156;17.130;2023-07-24T11:52:37;11.07;;;4.60;;
21731;SDS011;11028;51.156;17.130;2023-07-24T11:59:58;8.63;;;5.18;;
21731;SDS011;11028;51.156;17.130;2023-07-24T12:07:16;6.55;;;4.50;;
21731;SDS011;11028;51.156;17.130;2023-07-24T12:14:34;8.73;;;4.78;;
21731;SDS011;11028;51.156;17.130;2023-07-24T12:21:54;8.07;;;5.07;;
21731;SDS011;11028;51.156;17.130;2023-07-24T12:29:13;11.23;;;5.15;;
21731;SDS011;11028;51.156;17.130;2023-07-24T12:36:31;11.70;;;5.50;;
21731;SDS011;11028;51.156;17.130;2023-07-24T12:43:50;7.90;;;5.25;;
21731;SDS011;11028;51.156;17.130;2023-07-24T12:51:09;9.23;;;5.80;;
21731;SDS011;11028;51.156;17.130;2023-07-24T12:58:27;12.52;;;6.25;;
21731;SDS011;11028;51.156;17.130;2023-07-24T13:05:46;9.80;;;5.65;;
21731;SDS011;11028;51.156;17.130;2023-07-24T13:13:05;13.23;;;6.10;;
21731;SDS011;11028;51.156;17.130;2023-07-24T13:20:24;10.40;;;6.10;;
21731;SDS011;11028;51.156;17.130;2023-07-24T13:27:43;11.02;;;6.35;;
21731;SDS011;11028;51.156;17.130;2023-07-24T13:35:02;12.93;;;6.88;;
21731;SDS011;11028;51.156;17.130;2023-07-24T13:42:21;10.80;;;6.60;;
21731;SDS011;11028;51.156;17.130;2023-07-24T13:49:41;12.70;;;6.18;;
21731;SDS011;11028;51.156;17.130;2023-07-24T13:56:59;9.10;;;5.50;;
21731;SDS011;11028;51.156;17.130;2023-07-24T14:04:17;9.98;;;5.55;;
21731;SDS011;11028;51.156;17.130;2023-07-24T14:11:37;11.88;;;6.10;;
21731;SDS011;11028;51.156;17.130;2023-07-24T14:18:55;10.55;;;5.85;;
21731;SDS011;11028;51.156;17.130;2023-07-24T14:26:14;13.57;;;5.93;;
21731;SDS011;11028;51.156;17.130;2023-07-24T14:33:33;10.27;;;5.97;;
21731;SDS011;11028;51.156;17.130;2023-07-24T14:40:51;10.90;;;6.30;;
21731;SDS011;11028;51.156;17.130;2023-07-24T14:48:10;11.27;;;6.05;;
21731;SDS011;11028;51.156;17.130;2023-07-24T14:55:31;9.68;;;6.35;;
21731;SDS011;11028;51.156;17.130;2023-07-24T15:02:49;11.65;;;6.63;;
21731;SDS011;11028;51.156;17.130;2023-07-24T15:10:08;10.43;;;5.97;;
21731;SDS011;11028;51.156;17.130;2023-07-24T15:17:29;7.95;;;5.70;;
21731;SDS011;11028;51.156;17.130;2023-07-24T15:24:47;11.10;;;5.70;;
21731;SDS011;11028;51.156;17.130;2023-07-24T15:32:06;9.73;;;6.00;;
21731;SDS011;11028;51.156;17.130;2023-07-24T15:39:26;9.27;;;5.55;;
21731;SDS011;11028;51.156;17.130;2023-07-24T15:46:44;11.15;;;6.13;;
21731;SDS011;11028;51.156;17.130;2023-07-24T15:54:03;13.20;;;6.18;;
21731;SDS011;11028;51.156;17.130;2023-07-24T16:01:27;8.37;;;5.73;;
21731;SDS011;11028;51.156;17.130;2023-07-24T16:08:46;8.20;;;5.30;;
21731;SDS011;11028;51.156;17.130;2023-07-24T16:16:04;10.23;;;6.10;;
21731;SDS011;11028;51.156;17.130;2023-07-24T16:23:24;11.55;;;5.75;;
21731;SDS011;11028;51.156;17.130;2023-07-24T16:30:42;16.17;;;6.80;;
21731;SDS011;11028;51.156;17.130;2023-07-24T16:38:02;9.18;;;5.80;;
21731;SDS011;11028;51.156;17.130;2023-07-24T16:45:25;10.88;;;6.18;;
21731;SDS011;11028;51.156;17.130;2023-07-24T16:52:52;12.65;;;6.70;;
21731;SDS011;11028;51.156;17.130;2023-07-24T17:00:11;14.25;;;6.90;;
21731;SDS011;11028;51.156;17.130;2023-07-24T17:07:32;11.68;;;6.13;;
21731;SDS011;11028;51.156;17.130;2023-07-24T17:14:50;10.82;;;6.53;;
21731;SDS011;11028;51.156;17.130;2023-07-24T17:22:09;13.43;;;6.15;;
21731;SDS011;11028;51.156;17.130;2023-07-24T17:29:29;14.85;;;7.53;;
21731;SDS011;11028;51.156;17.130;2023-07-24T17:36:47;11.55;;;6.95;;
21731;SDS011;11028;51.156;17.130;2023-07-24T17:44:05;14.43;;;6.95;;
21731;SDS011;11028;51.156;17.130;2023-07-24T17:51:25;12.77;;;6.30;;
21731;SDS011;11028;51.156;17.130;2023-07-24T17:58:44;12.45;;;7.38;;
21731;SDS011;11028;51.156;17.130;2023-07-24T18:06:02;13.63;;;6.60;;
21731;SDS011;11028;51.156;17.130;2023-07-24T18:13:22;12.38;;;7.10;;
21731;SDS011;11028;51.156;17.130;2023-07-24T18:20:40;11.05;;;6.85;;
21731;SDS011;11028;51.156;17.130;2023-07-24T18:27:58;11.52;;;6.82;;
21731;SDS011;11028;51.156;17.130;2023-07-24T18:35:18;13.90;;;7.35;;
21731;SDS011;11028;51.156;17.130;2023-07-24T18:42:37;9.45;;;6.32;;
21731;SDS011;11028;51.156;17.130;2023-07-24T18:49:55;13.27;;;6.85;;
21731;SDS011;11028;51.156;17.130;2023-07-24T18:57:16;11.35;;;6.95;;
21731;SDS011;11028;51.156;17.130;2023-07-24T19:04:35;14.13;;;6.28;;
21731;SDS011;11028;51.156;17.130;2023-07-24T19:11:53;13.45;;;6.88;;
21731;SDS011;11028;51.156;17.130;2023-07-24T19:19:13;18.10;;;7.85;;
21731;SDS011;11028;51.156;17.130;2023-07-24T19:26:31;14.90;;;6.80;;
21731;SDS011;11028;51.156;17.130;2023-07-24T19:33:50;11.95;;;6.32;;
21731;SDS011;11028;51.156;17.130;2023-07-24T19:41:10;11.80;;;6.35;;
21731;SDS011;11028;51.156;17.130;2023-07-24T19:48:28;14.07;;;6.82;;
21731;SDS011;11028;51.156;17.130;2023-07-24T19:55:47;11.27;;;6.32;;
21731;SDS011;11028;51.156;17.130;2023-07-24T20:03:06;10.43;;;6.03;;
21731;SDS011;11028;51.156;17.130;2023-07-24T20:10:25;12.00;;;6.57;;
21731;SDS011;11028;51.156;17.130;2023-07-24T20:17:43;12.82;;;7.18;;
21731;SDS011;11028;51.156;17.130;2023-07-24T20:25:03;13.90;;;6.63;;
21731;SDS011;11028;51.156;17.130;2023-07-24T20:32:22;10.68;;;6.28;;
21731;SDS011;11028;51.156;17.130;2023-07-24T20:39:40;9.85;;;6.40;;
21731;SDS011;11028;51.156;17.130;2023-07-24T20:47:00;18.33;;;6.65;;
21731;SDS011;11028;51.156;17.130;2023-07-24T20:54:18;11.75;;;6.93;;
21731;SDS011;11028;51.156;17.130;2023-07-24T21:01:36;11.68;;;5.90;;
21731;SDS011;11028;51.156;17.130;2023-07-24T21:08:56;11.73;;;5.28;;
21731;SDS011;11028;51.156;17.130;2023-07-24T21:16:14;7.93;;;4.70;;
21731;SDS011;11028;51.156;17.130;2023-07-24T21:23:32;7.07;;;4.50;;
21731;SDS011;11028;51.156;17.130;2023-07-24T21:30:52;6.25;;;3.90;;
21731;SDS011;11028;51.156;17.130;2023-07-24T21:38:10;7.28;;;3.95;;
21731;SDS011;11028;51.156;17.130;2023-07-24T21:45:30;9.20;;;4.38;;
21731;SDS011;11028;51.156;17.130;2023-07-24T21:52:50;8.95;;;4.28;;
21731;SDS011;11028;51.156;17.130;2023-07-24T22:00:09;7.30;;;4.00;;
21731;SDS011;11028;51.156;17.130;2023-07-24T22:07:29;7.97;;;5.18;;
21731;SDS011;11028;51.156;17.130;2023-07-24T22:14:53;9.20;;;4.40;;
21731;SDS011;11028;51.156;17.130;2023-07-24T22:22:11;11.40;;;4.90;;
21731;SDS011;11028;51.156;17.130;2023-07-24T22:29:30;6.10;;;4.00;;
21731;SDS011;11028;51.156;17.130;2023-07-24T22:36:50;6.93;;;4.10;;
21731;SDS011;11028;51.156;17.130;2023-07-24T22:44:09;6.68;;;3.78;;
21731;SDS011;11028;51.156;17.130;2023-07-24T22:51:27;8.38;;;4.53;;
21731;SDS011;11028;51.156;17.130;2023-07-24T22:58:58;8.48;;;5.10;;
21731;SDS011;11028;51.156;17.130;2023-07-24T23:06:34;6.88;;;4.45;;
21731;SDS011;11028;51.156;17.130;2023-07-24T23:13:53;7.45;;;4.65;;
21731;SDS011;11028;51.156;17.130;2023-07-24T23:21:13;6.05;;;3.83;;
21731;SDS011;11028;51.156;17.130;2023-07-24T23:28:31;7.00;;;4.18;;
21731;SDS011;11028;51.156;17.130;2023-07-24T23:35:50;6.93;;;3.97;;
21731;SDS011;11028;51.156;17.130;2023-07-24T23:43:10;6.95;;;4.65;;
21731;SDS011;11028;51.156;17.130;2023-07-24T23:50:28;7.43;;;4.15;;
21731;SDS011;11028;51.156;17.130;2023-07-24T23:57:47;8.20;;;4.65;;
